sensor_id;sensor_type;location;lat;lon;timestamp;temperature;humidity
14277;DHT22;7222;57.346;12.150;2023-04-15T00:02:15;10.00;99.90
14277;DHT22;7222;57.346;12.150;2023-04-15T00:04:43;10.00;99.90
14277;DHT22;7222;57.346;12.150;2023-04-15T00:07:10;10.00;18.30
14277;DHT22;7222;57.346;12.150;2023-04-15T00:09:37;10.00;2.90
14277;DHT22;7222;57.346;12.150;2023-04-15T00:12:04;10.00;99.90
14277;DHT22;7222;57.346;12.150;2023-04-15T00:14:33;10.00;1.00
14277;DHT22;7222;57.346;12.150;2023-04-15T00:17:01;10.00;99.90
14277;DHT22;7222;57.346;12.150;2023-04-15T00:19:30;9.90;99.90
14277;DHT22;7222;57.346;12.150;2023-04-15T00:21:58;10.00;99.90
14277;DHT22;7222;57.346;12.150;2023-04-15T00:24:25;9.90;1.00
14277;DHT22;7222;57.346;12.150;2023-04-15T00:26:52;9.90;99.90
14277;DHT22;7222;57.346;12.150;2023-04-15T00:29:19;10.00;1.00
14277;DHT22;7222;57.346;12.150;2023-04-15T00:31:46;9.90;1.00
14277;DHT22;7222;57.346;12.150;2023-04-15T00:34:13;10.00;99.90
14277;DHT22;7222;57.346;12.150;2023-04-15T00:36:41;10.00;17.00
14277;DHT22;7222;57.346;12.150;2023-04-15T00:39:08;10.00;40.70
14277;DHT22;7222;57.346;12.150;2023-04-15T00:41:35;10.00;99.90
14277;DHT22;7222;57.346;12.150;2023-04-15T00:44:04;10.00;44.40
14277;DHT22;7222;57.346;12.150;2023-04-15T00:46:33;10.00;76.90
14277;DHT22;7222;57.346;12.150;2023-04-15T00:49:03;10.00;1.00
14277;DHT22;7222;57.346;12.150;2023-04-15T00:51:30;10.00;99.90
14277;DHT22;7222;57.346;12.150;2023-04-15T00:53:59;10.00;99.90
14277;DHT22;7222;57.346;12.150;2023-04-15T00:56:28;10.00;1.00
14277;DHT22;7222;57.346;12.150;2023-04-15T00:58:55;9.90;99.90
14277;DHT22;7222;57.346;12.150;2023-04-15T01:01:24;10.00;41.00
14277;DHT22;7222;57.346;12.150;2023-04-15T01:03:52;10.00;1.00
14277;DHT22;7222;57.346;12.150;2023-04-15T01:06:19;10.00;47.60
14277;DHT22;7222;57.346;12.150;2023-04-15T01:08:46;9.90;99.90
14277;DHT22;7222;57.346;12.150;2023-04-15T01:11:14;10.00;99.90
14277;DHT22;7222;57.346;12.150;2023-04-15T01:13:43;9.90;99.90
14277;DHT22;7222;57.346;12.150;2023-04-15T01:16:10;9.90;1.00
14277;DHT22;7222;57.346;12.150;2023-04-15T01:18:37;9.90;1.00
14277;DHT22;7222;57.346;12.150;2023-04-15T01:21:05;9.90;1.00
14277;DHT22;7222;57.346;12.150;2023-04-15T01:23:35;9.90;1.00
14277;DHT22;7222;57.346;12.150;2023-04-15T01:26:05;10.00;1.00
14277;DHT22;7222;57.346;12.150;2023-04-15T01:28:33;9.90;1.00
14277;DHT22;7222;57.346;12.150;2023-04-15T01:31:07;10.00;1.00
14277;DHT22;7222;57.346;12.150;2023-04-15T01:33:35;10.00;99.90
14277;DHT22;7222;57.346;12.150;2023-04-15T01:36:03;10.00;21.80
14277;DHT22;7222;57.346;12.150;2023-04-15T01:38:30;9.90;99.90
14277;DHT22;7222;57.346;12.150;2023-04-15T01:40:57;9.90;1.00
14277;DHT22;7222;57.346;12.150;2023-04-15T01:43:26;9.90;99.90
14277;DHT22;7222;57.346;12.150;2023-04-15T01:45:53;9.90;1.00
14277;DHT22;7222;57.346;12.150;2023-04-15T01:48:21;9.80;99.90
14277;DHT22;7222;57.346;12.150;2023-04-15T01:50:48;9.80;1.00
14277;DHT22;7222;57.346;12.150;2023-04-15T01:53:14;9.80;99.90
14277;DHT22;7222;57.346;12.150;2023-04-15T01:55:42;9.70;70.40
14277;DHT22;7222;57.346;12.150;2023-04-15T01:58:08;9.70;1.00
14277;DHT22;7222;57.346;12.150;2023-04-15T02:00:37;9.70;99.90
14277;DHT22;7222;57.346;12.150;2023-04-15T02:03:04;9.70;1.00
14277;DHT22;7222;57.346;12.150;2023-04-15T02:05:31;9.70;1.00
14277;DHT22;7222;57.346;12.150;2023-04-15T02:07:58;9.60;1.00
14277;DHT22;7222;57.346;12.150;2023-04-15T02:10:25;9.60;1.00
14277;DHT22;7222;57.346;12.150;2023-04-15T02:12:52;9.60;1.00
14277;DHT22;7222;57.346;12.150;2023-04-15T02:15:19;9.60;99.90
14277;DHT22;7222;57.346;12.150;2023-04-15T02:17:47;9.50;1.00
14277;DHT22;7222;57.346;12.150;2023-04-15T02:20:15;9.60;1.00
14277;DHT22;7222;57.346;12.150;2023-04-15T02:22:43;9.50;1.00
14277;DHT22;7222;57.346;12.150;2023-04-15T02:25:10;9.50;1.00
14277;DHT22;7222;57.346;12.150;2023-04-15T02:27:37;9.50;1.00
14277;DHT22;7222;57.346;12.150;2023-04-15T02:30:05;9.50;99.90
14277;DHT22;7222;57.346;12.150;2023-04-15T02:32:33;9.50;99.90
14277;DHT22;7222;57.346;12.150;2023-04-15T02:35:04;9.50;28.20
14277;DHT22;7222;57.346;12.150;2023-04-15T02:37:32;9.50;1.00
14277;DHT22;7222;57.346;12.150;2023-04-15T02:40:01;9.50;1.00
14277;DHT22;7222;57.346;12.150;2023-04-15T02:42:29;9.50;99.90
14277;DHT22;7222;57.346;12.150;2023-04-15T02:44:56;9.50;1.00
14277;DHT22;7222;57.346;12.150;2023-04-15T02:47:23;9.50;1.00
14277;DHT22;7222;57.346;12.150;2023-04-15T02:49:51;9.50;1.00
14277;DHT22;7222;57.346;12.150;2023-04-15T02:52:20;9.50;50.00
14277;DHT22;7222;57.346;12.150;2023-04-15T02:54:46;9.40;1.00
14277;DHT22;7222;57.346;12.150;2023-04-15T02:57:13;9.50;99.90
14277;DHT22;7222;57.346;12.150;2023-04-15T02:59:40;9.50;99.90
14277;DHT22;7222;57.346;12.150;2023-04-15T03:02:07;9.50;99.90
14277;DHT22;7222;57.346;12.150;2023-04-15T03:04:34;9.40;99.90
14277;DHT22;7222;57.346;12.150;2023-04-15T03:07:01;9.50;83.00
14277;DHT22;7222;57.346;12.150;2023-04-15T03:09:29;9.50;99.90
14277;DHT22;7222;57.346;12.150;2023-04-15T03:11:57;9.40;99.90
14277;DHT22;7222;57.346;12.150;2023-04-15T03:14:24;9.40;99.90
14277;DHT22;7222;57.346;12.150;2023-04-15T03:16:51;9.50;99.90
14277;DHT22;7222;57.346;12.150;2023-04-15T03:19:18;9.50;99.90
14277;DHT22;7222;57.346;12.150;2023-04-15T03:21:45;9.50;99.90
14277;DHT22;7222;57.346;12.150;2023-04-15T03:24:12;9.50;99.90
14277;DHT22;7222;57.346;12.150;2023-04-15T03:26:40;9.40;99.90
14277;DHT22;7222;57.346;12.150;2023-04-15T03:29:07;9.40;99.90
14277;DHT22;7222;57.346;12.150;2023-04-15T03:31:34;9.50;99.90
14277;DHT22;7222;57.346;12.150;2023-04-15T03:34:01;9.50;99.90
14277;DHT22;7222;57.346;12.150;2023-04-15T03:36:29;9.40;99.90
14277;DHT22;7222;57.346;12.150;2023-04-15T03:38:57;9.40;99.90
14277;DHT22;7222;57.346;12.150;2023-04-15T03:41:24;9.40;99.90
14277;DHT22;7222;57.346;12.150;2023-04-15T03:43:53;9.40;99.90
14277;DHT22;7222;57.346;12.150;2023-04-15T03:46:20;9.40;99.90
14277;DHT22;7222;57.346;12.150;2023-04-15T03:48:47;9.40;99.90
14277;DHT22;7222;57.346;12.150;2023-04-15T03:51:13;9.40;99.90
14277;DHT22;7222;57.346;12.150;2023-04-15T03:53:40;9.40;99.90
14277;DHT22;7222;57.346;12.150;2023-04-15T03:56:07;9.40;99.90
14277;DHT22;7222;57.346;12.150;2023-04-15T03:58:34;9.40;99.90
14277;DHT22;7222;57.346;12.150;2023-04-15T04:01:02;9.40;99.90
14277;DHT22;7222;57.346;12.150;2023-04-15T04:03:29;9.40;99.90
14277;DHT22;7222;57.346;12.150;2023-04-15T04:05:56;9.40;99.90
14277;DHT22;7222;57.346;12.150;2023-04-15T04:08:23;9.40;99.90
14277;DHT22;7222;57.346;12.150;2023-04-15T04:10:52;9.40;99.90
14277;DHT22;7222;57.346;12.150;2023-04-15T04:13:18;9.40;99.90
14277;DHT22;7222;57.346;12.150;2023-04-15T04:15:45;9.40;99.90
14277;DHT22;7222;57.346;12.150;2023-04-15T04:18:14;9.40;99.90
14277;DHT22;7222;57.346;12.150;2023-04-15T04:20:41;9.40;99.90
14277;DHT22;7222;57.346;12.150;2023-04-15T04:23:08;9.40;3.90
14277;DHT22;7222;57.346;12.150;2023-04-15T04:25:35;9.40;99.90
14277;DHT22;7222;57.346;12.150;2023-04-15T04:28:02;9.40;99.90
14277;DHT22;7222;57.346;12.150;2023-04-15T04:30:30;9.40;99.90
14277;DHT22;7222;57.346;12.150;2023-04-15T04:32:57;9.40;99.90
14277;DHT22;7222;57.346;12.150;2023-04-15T04:35:25;9.40;99.90
14277;DHT22;7222;57.346;12.150;2023-04-15T04:37:52;9.40;99.90
14277;DHT22;7222;57.346;12.150;2023-04-15T04:40:19;9.40;1.00
14277;DHT22;7222;57.346;12.150;2023-04-15T04:42:46;9.40;1.00
14277;DHT22;7222;57.346;12.150;2023-04-15T04:45:13;9.50;99.90
14277;DHT22;7222;57.346;12.150;2023-04-15T04:47:40;9.50;1.00
14277;DHT22;7222;57.346;12.150;2023-04-15T04:50:08;9.40;1.00
14277;DHT22;7222;57.346;12.150;2023-04-15T04:52:37;9.40;7.50
14277;DHT22;7222;57.346;12.150;2023-04-15T04:55:04;9.50;1.00
14277;DHT22;7222;57.346;12.150;2023-04-15T04:57:33;9.50;1.00
14277;DHT22;7222;57.346;12.150;2023-04-15T05:00:00;9.50;1.00
14277;DHT22;7222;57.346;12.150;2023-04-15T05:02:29;9.50;1.00
14277;DHT22;7222;57.346;12.150;2023-04-15T05:04:56;9.50;1.00
14277;DHT22;7222;57.346;12.150;2023-04-15T05:07:23;9.50;1.00
14277;DHT22;7222;57.346;12.150;2023-04-15T05:09:52;9.50;1.00
14277;DHT22;7222;57.346;12.150;2023-04-15T05:12:19;9.50;1.00
14277;DHT22;7222;57.346;12.150;2023-04-15T05:14:46;9.60;99.90
14277;DHT22;7222;57.346;12.150;2023-04-15T05:17:13;9.60;1.00
14277;DHT22;7222;57.346;12.150;2023-04-15T05:19:40;9.50;99.90
14277;DHT22;7222;57.346;12.150;2023-04-15T05:22:07;9.60;99.90
14277;DHT22;7222;57.346;12.150;2023-04-15T05:24:34;9.50;99.90
14277;DHT22;7222;57.346;12.150;2023-04-15T05:27:02;9.60;99.90
14277;DHT22;7222;57.346;12.150;2023-04-15T05:29:29;9.60;99.90
14277;DHT22;7222;57.346;12.150;2023-04-15T05:31:56;9.60;99.90
14277;DHT22;7222;57.346;12.150;2023-04-15T05:34:23;9.60;99.90
14277;DHT22;7222;57.346;12.150;2023-04-15T05:36:50;9.60;99.90
14277;DHT22;7222;57.346;12.150;2023-04-15T05:39:18;9.60;99.90
14277;DHT22;7222;57.346;12.150;2023-04-15T05:41:45;9.60;21.30
14277;DHT22;7222;57.346;12.150;2023-04-15T05:44:14;9.70;99.90
14277;DHT22;7222;57.346;12.150;2023-04-15T05:46:41;9.70;99.90
14277;DHT22;7222;57.346;12.150;2023-04-15T05:49:08;9.70;84.40
14277;DHT22;7222;57.346;12.150;2023-04-15T05:51:35;9.70;1.00
14277;DHT22;7222;57.346;12.150;2023-04-15T05:54:02;9.70;14.10
14277;DHT22;7222;57.346;12.150;2023-04-15T05:56:29;9.70;99.90
14277;DHT22;7222;57.346;12.150;2023-04-15T05:58:56;9.70;23.00
14277;DHT22;7222;57.346;12.150;2023-04-15T06:01:25;9.70;1.00
14277;DHT22;7222;57.346;12.150;2023-04-15T06:03:52;9.80;1.00
14277;DHT22;7222;57.346;12.150;2023-04-15T06:06:20;9.80;99.90
14277;DHT22;7222;57.346;12.150;2023-04-15T06:08:46;9.80;99.90
14277;DHT22;7222;57.346;12.150;2023-04-15T06:11:13;9.80;99.90
14277;DHT22;7222;57.346;12.150;2023-04-15T06:13:40;9.90;62.40
14277;DHT22;7222;57.346;12.150;2023-04-15T06:16:07;9.90;79.50
14277;DHT22;7222;57.346;12.150;2023-04-15T06:18:36;9.80;99.90
14277;DHT22;7222;57.346;12.150;2023-04-15T06:21:03;9.90;4.30
14277;DHT22;7222;57.346;12.150;2023-04-15T06:23:30;9.90;99.90
14277;DHT22;7222;57.346;12.150;2023-04-15T06:25:59;9.90;99.90
14277;DHT22;7222;57.346;12.150;2023-04-15T06:28:27;10.00;1.00
14277;DHT22;7222;57.346;12.150;2023-04-15T06:30:54;10.00;88.90
14277;DHT22;7222;57.346;12.150;2023-04-15T06:33:21;10.00;1.00
14277;DHT22;7222;57.346;12.150;2023-04-15T06:35:50;10.00;38.70
14277;DHT22;7222;57.346;12.150;2023-04-15T06:38:17;10.00;99.90
14277;DHT22;7222;57.346;12.150;2023-04-15T06:40:45;10.00;1.00
14277;DHT22;7222;57.346;12.150;2023-04-15T06:43:11;10.00;1.00
14277;DHT22;7222;57.346;12.150;2023-04-15T06:45:39;10.10;1.00
14277;DHT22;7222;57.346;12.150;2023-04-15T06:48:07;10.10;1.00
14277;DHT22;7222;57.346;12.150;2023-04-15T06:50:34;10.10;99.90
14277;DHT22;7222;57.346;12.150;2023-04-15T06:53:02;10.20;99.90
14277;DHT22;7222;57.346;12.150;2023-04-15T06:55:29;10.20;99.90
14277;DHT22;7222;57.346;12.150;2023-04-15T06:57:58;10.20;99.90
14277;DHT22;7222;57.346;12.150;2023-04-15T07:00:25;10.30;1.00
14277;DHT22;7222;57.346;12.150;2023-04-15T07:02:53;10.30;1.00
14277;DHT22;7222;57.346;12.150;2023-04-15T07:05:21;10.40;1.00
14277;DHT22;7222;57.346;12.150;2023-04-15T07:07:48;10.40;1.00
14277;DHT22;7222;57.346;12.150;2023-04-15T07:10:16;10.40;99.90
14277;DHT22;7222;57.346;12.150;2023-04-15T07:12:44;10.50;98.00
14277;DHT22;7222;57.346;12.150;2023-04-15T07:15:11;10.50;1.10
14277;DHT22;7222;57.346;12.150;2023-04-15T07:17:38;10.50;1.00
14277;DHT22;7222;57.346;12.150;2023-04-15T07:20:07;10.60;48.80
14277;DHT22;7222;57.346;12.150;2023-04-15T07:22:34;10.60;1.00
14277;DHT22;7222;57.346;12.150;2023-04-15T07:25:01;10.70;99.90
14277;DHT22;7222;57.346;12.150;2023-04-15T07:27:29;10.70;99.90
14277;DHT22;7222;57.346;12.150;2023-04-15T07:29:57;10.80;1.00
14277;DHT22;7222;57.346;12.150;2023-04-15T07:32:23;10.90;24.50
14277;DHT22;7222;57.346;12.150;2023-04-15T07:34:50;10.90;1.00
14277;DHT22;7222;57.346;12.150;2023-04-15T07:37:18;11.00;1.00
14277;DHT22;7222;57.346;12.150;2023-04-15T07:39:44;11.10;99.90
14277;DHT22;7222;57.346;12.150;2023-04-15T07:42:11;11.20;99.90
14277;DHT22;7222;57.346;12.150;2023-04-15T07:44:40;11.30;44.50
14277;DHT22;7222;57.346;12.150;2023-04-15T07:47:07;11.30;1.00
14277;DHT22;7222;57.346;12.150;2023-04-15T07:49:33;11.40;1.00
14277;DHT22;7222;57.346;12.150;2023-04-15T07:52:00;11.50;1.00
14277;DHT22;7222;57.346;12.150;2023-04-15T07:54:28;11.60;99.90
14277;DHT22;7222;57.346;12.150;2023-04-15T07:56:55;11.80;99.90
14277;DHT22;7222;57.346;12.150;2023-04-15T07:59:22;12.00;1.00
14277;DHT22;7222;57.346;12.150;2023-04-15T08:01:51;12.10;99.90
14277;DHT22;7222;57.346;12.150;2023-04-15T08:04:18;12.30;92.60
14277;DHT22;7222;57.346;12.150;2023-04-15T08:06:45;12.40;1.00
14277;DHT22;7222;57.346;12.150;2023-04-15T08:09:12;12.50;99.90
14277;DHT22;7222;57.346;12.150;2023-04-15T08:11:40;12.70;99.90
14277;DHT22;7222;57.346;12.150;2023-04-15T08:14:07;12.90;99.90
14277;DHT22;7222;57.346;12.150;2023-04-15T08:16:34;13.00;1.00
14277;DHT22;7222;57.346;12.150;2023-04-15T08:19:02;13.10;1.00
14277;DHT22;7222;57.346;12.150;2023-04-15T08:21:30;13.20;99.90
14277;DHT22;7222;57.346;12.150;2023-04-15T08:23:56;13.30;99.90
14277;DHT22;7222;57.346;12.150;2023-04-15T08:26:24;13.40;99.90
14277;DHT22;7222;57.346;12.150;2023-04-15T08:28:51;13.40;1.00
14277;DHT22;7222;57.346;12.150;2023-04-15T08:31:18;13.60;1.00
14277;DHT22;7222;57.346;12.150;2023-04-15T08:33:46;13.70;1.00
14277;DHT22;7222;57.346;12.150;2023-04-15T08:36:14;13.80;1.00
14277;DHT22;7222;57.346;12.150;2023-04-15T08:38:43;13.90;99.90
14277;DHT22;7222;57.346;12.150;2023-04-15T08:41:15;14.20;99.90
14277;DHT22;7222;57.346;12.150;2023-04-15T08:43:51;14.50;1.00
14277;DHT22;7222;57.346;12.150;2023-04-15T08:46:19;14.80;1.00
14277;DHT22;7222;57.346;12.150;2023-04-15T08:48:47;15.10;1.00
14277;DHT22;7222;57.346;12.150;2023-04-15T08:51:16;15.40;99.90
14277;DHT22;7222;57.346;12.150;2023-04-15T08:53:44;15.60;99.90
14277;DHT22;7222;57.346;12.150;2023-04-15T08:56:14;15.90;1.00
14277;DHT22;7222;57.346;12.150;2023-04-15T08:58:42;16.10;1.00
14277;DHT22;7222;57.346;12.150;2023-04-15T09:01:12;16.30;99.90
14277;DHT22;7222;57.346;12.150;2023-04-15T09:03:39;16.50;1.00
14277;DHT22;7222;57.346;12.150;2023-04-15T09:06:07;16.60;99.90
14277;DHT22;7222;57.346;12.150;2023-04-15T09:08:36;16.80;99.90
14277;DHT22;7222;57.346;12.150;2023-04-15T09:11:03;17.00;1.00
14277;DHT22;7222;57.346;12.150;2023-04-15T09:14:03;17.30;99.90
14277;DHT22;7222;57.346;12.150;2023-04-15T09:16:30;17.50;94.70
14277;DHT22;7222;57.346;12.150;2023-04-15T09:18:58;17.60;1.00
14277;DHT22;7222;57.346;12.150;2023-04-15T09:21:25;17.50;1.00
14277;DHT22;7222;57.346;12.150;2023-04-15T09:23:58;17.30;1.00
14277;DHT22;7222;57.346;12.150;2023-04-15T09:26:32;17.50;1.00
14277;DHT22;7222;57.346;12.150;2023-04-15T09:29:09;17.60;1.00
14277;DHT22;7222;57.346;12.150;2023-04-15T09:31:38;17.60;99.90
14277;DHT22;7222;57.346;12.150;2023-04-15T09:34:06;17.70;99.90
14277;DHT22;7222;57.346;12.150;2023-04-15T09:36:52;17.70;99.90
14277;DHT22;7222;57.346;12.150;2023-04-15T09:39:21;17.70;99.90
14277;DHT22;7222;57.346;12.150;2023-04-15T09:42:04;18.00;99.90
14277;DHT22;7222;57.346;12.150;2023-04-15T09:44:32;18.10;1.00
14277;DHT22;7222;57.346;12.150;2023-04-15T09:46:59;18.20;99.90
14277;DHT22;7222;57.346;12.150;2023-04-15T09:49:26;18.20;99.90
14277;DHT22;7222;57.346;12.150;2023-04-15T09:51:58;18.40;99.90
14277;DHT22;7222;57.346;12.150;2023-04-15T09:54:35;18.40;99.90
14277;DHT22;7222;57.346;12.150;2023-04-15T09:57:07;18.50;99.90
14277;DHT22;7222;57.346;12.150;2023-04-15T09:59:34;18.70;99.90
14277;DHT22;7222;57.346;12.150;2023-04-15T10:02:03;18.90;99.90
14277;DHT22;7222;57.346;12.150;2023-04-15T10:04:34;18.90;99.90
14277;DHT22;7222;57.346;12.150;2023-04-15T10:07:03;18.70;99.90
14277;DHT22;7222;57.346;12.150;2023-04-15T10:09:35;19.10;99.90
14277;DHT22;7222;57.346;12.150;2023-04-15T10:12:02;19.40;99.90
14277;DHT22;7222;57.346;12.150;2023-04-15T10:14:33;19.50;99.90
14277;DHT22;7222;57.346;12.150;2023-04-15T10:17:01;19.80;99.90
14277;DHT22;7222;57.346;12.150;2023-04-15T10:19:32;19.90;99.90
14277;DHT22;7222;57.346;12.150;2023-04-15T10:21:59;20.00;99.90
14277;DHT22;7222;57.346;12.150;2023-04-15T10:24:26;20.30;99.90
14277;DHT22;7222;57.346;12.150;2023-04-15T10:26:55;20.60;70.20
14277;DHT22;7222;57.346;12.150;2023-04-15T10:29:23;20.80;74.20
14277;DHT22;7222;57.346;12.150;2023-04-15T10:31:53;20.60;84.80
14277;DHT22;7222;57.346;12.150;2023-04-15T10:34:20;20.80;12.70
14277;DHT22;7222;57.346;12.150;2023-04-15T10:36:48;20.70;8.10
14277;DHT22;7222;57.346;12.150;2023-04-15T10:39:38;20.80;48.80
14277;DHT22;7222;57.346;12.150;2023-04-15T10:42:09;20.80;1.00
14277;DHT22;7222;57.346;12.150;2023-04-15T10:44:36;21.10;49.20
14277;DHT22;7222;57.346;12.150;2023-04-15T10:47:13;21.20;29.30
14277;DHT22;7222;57.346;12.150;2023-04-15T10:49:45;20.80;43.60
14277;DHT22;7222;57.346;12.150;2023-04-15T10:52:14;20.80;39.10
14277;DHT22;7222;57.346;12.150;2023-04-15T10:54:42;20.70;15.10
14277;DHT22;7222;57.346;12.150;2023-04-15T10:57:16;20.70;1.00
14277;DHT22;7222;57.346;12.150;2023-04-15T11:00:17;20.70;13.40
14277;DHT22;7222;57.346;12.150;2023-04-15T11:02:45;20.40;45.20
14277;DHT22;7222;57.346;12.150;2023-04-15T11:05:13;20.90;46.90
14277;DHT22;7222;57.346;12.150;2023-04-15T11:07:48;20.80;32.30
14277;DHT22;7222;57.346;12.150;2023-04-15T11:13:22;20.70;3.90
14277;DHT22;7222;57.346;12.150;2023-04-15T11:15:55;20.50;1.00
14277;DHT22;7222;57.346;12.150;2023-04-15T11:18:24;20.60;13.70
14277;DHT22;7222;57.346;12.150;2023-04-15T11:20:53;20.60;12.10
14277;DHT22;7222;57.346;12.150;2023-04-15T11:23:27;20.60;1.00
14277;DHT22;7222;57.346;12.150;2023-04-15T11:25:55;20.30;3.50
14277;DHT22;7222;57.346;12.150;2023-04-15T11:28:26;20.50;1.00
14277;DHT22;7222;57.346;12.150;2023-04-15T11:30:54;20.40;30.30
14277;DHT22;7222;57.346;12.150;2023-04-15T11:33:22;20.50;26.90
14277;DHT22;7222;57.346;12.150;2023-04-15T11:35:51;20.40;12.90
14277;DHT22;7222;57.346;12.150;2023-04-15T11:38:18;20.40;15.90
14277;DHT22;7222;57.346;12.150;2023-04-15T11:40:46;20.60;9.60
14277;DHT22;7222;57.346;12.150;2023-04-15T11:43:14;20.50;1.00
14277;DHT22;7222;57.346;12.150;2023-04-15T11:45:51;20.50;7.40
14277;DHT22;7222;57.346;12.150;2023-04-15T11:48:19;20.70;1.00
14277;DHT22;7222;57.346;12.150;2023-04-15T11:50:52;20.40;1.00
14277;DHT22;7222;57.346;12.150;2023-04-15T11:53:20;20.60;1.00
14277;DHT22;7222;57.346;12.150;2023-04-15T11:55:48;20.80;1.00
14277;DHT22;7222;57.346;12.150;2023-04-15T11:58:17;20.90;3.50
14277;DHT22;7222;57.346;12.150;2023-04-15T12:00:46;20.80;1.00
14277;DHT22;7222;57.346;12.150;2023-04-15T12:03:17;20.90;1.00
14277;DHT22;7222;57.346;12.150;2023-04-15T12:06:08;21.20;1.00
14277;DHT22;7222;57.346;12.150;2023-04-15T12:08:55;21.00;1.00
14277;DHT22;7222;57.346;12.150;2023-04-15T12:11:37;21.00;1.00
14277;DHT22;7222;57.346;12.150;2023-04-15T12:14:08;21.00;1.00
14277;DHT22;7222;57.346;12.150;2023-04-15T12:16:37;20.90;1.00
14277;DHT22;7222;57.346;12.150;2023-04-15T12:19:08;21.10;1.00
14277;DHT22;7222;57.346;12.150;2023-04-15T12:21:37;21.00;1.00
14277;DHT22;7222;57.346;12.150;2023-04-15T12:24:06;21.20;1.00
14277;DHT22;7222;57.346;12.150;2023-04-15T12:26:35;21.10;1.00
14277;DHT22;7222;57.346;12.150;2023-04-15T12:29:04;21.10;1.00
14277;DHT22;7222;57.346;12.150;2023-04-15T12:31:33;21.20;1.00
14277;DHT22;7222;57.346;12.150;2023-04-15T12:34:02;21.10;1.00
14277;DHT22;7222;57.346;12.150;2023-04-15T12:36:31;21.20;1.00
14277;DHT22;7222;57.346;12.150;2023-04-15T12:39:02;20.90;1.00
14277;DHT22;7222;57.346;12.150;2023-04-15T12:41:29;21.10;1.00
14277;DHT22;7222;57.346;12.150;2023-04-15T12:43:57;21.30;1.00
14277;DHT22;7222;57.346;12.150;2023-04-15T12:46:25;21.00;1.00
14277;DHT22;7222;57.346;12.150;2023-04-15T12:48:52;20.80;1.00
14277;DHT22;7222;57.346;12.150;2023-04-15T12:51:19;20.70;1.00
14277;DHT22;7222;57.346;12.150;2023-04-15T12:53:48;20.70;1.00
14277;DHT22;7222;57.346;12.150;2023-04-15T12:56:16;20.80;1.00
14277;DHT22;7222;57.346;12.150;2023-04-15T12:58:44;20.80;1.00
14277;DHT22;7222;57.346;12.150;2023-04-15T13:01:12;20.90;1.00
14277;DHT22;7222;57.346;12.150;2023-04-15T13:03:38;20.90;1.00
14277;DHT22;7222;57.346;12.150;2023-04-15T13:06:05;20.70;1.00
14277;DHT22;7222;57.346;12.150;2023-04-15T13:08:33;20.90;1.00
14277;DHT22;7222;57.346;12.150;2023-04-15T13:11:01;21.00;1.00
14277;DHT22;7222;57.346;12.150;2023-04-15T13:13:28;21.00;1.00
14277;DHT22;7222;57.346;12.150;2023-04-15T13:15:56;21.20;1.00
14277;DHT22;7222;57.346;12.150;2023-04-15T13:18:23;21.30;1.00
14277;DHT22;7222;57.346;12.150;2023-04-15T13:20:50;21.00;1.00
14277;DHT22;7222;57.346;12.150;2023-04-15T13:23:17;21.20;1.00
14277;DHT22;7222;57.346;12.150;2023-04-15T13:25:44;21.10;1.00
14277;DHT22;7222;57.346;12.150;2023-04-15T13:28:14;21.00;1.00
14277;DHT22;7222;57.346;12.150;2023-04-15T13:30:43;21.00;1.00
14277;DHT22;7222;57.346;12.150;2023-04-15T13:33:10;20.80;1.00
14277;DHT22;7222;57.346;12.150;2023-04-15T13:35:38;20.80;1.00
14277;DHT22;7222;57.346;12.150;2023-04-15T13:38:06;20.80;1.00
14277;DHT22;7222;57.346;12.150;2023-04-15T13:40:33;20.80;1.00
14277;DHT22;7222;57.346;12.150;2023-04-15T13:43:00;20.80;1.00
14277;DHT22;7222;57.346;12.150;2023-04-15T13:45:29;20.70;1.00
14277;DHT22;7222;57.346;12.150;2023-04-15T13:47:56;20.70;1.00
14277;DHT22;7222;57.346;12.150;2023-04-15T13:50:23;20.50;1.00
14277;DHT22;7222;57.346;12.150;2023-04-15T13:52:50;20.50;1.00
14277;DHT22;7222;57.346;12.150;2023-04-15T13:55:18;20.50;1.00
14277;DHT22;7222;57.346;12.150;2023-04-15T13:57:45;20.60;1.00
14277;DHT22;7222;57.346;12.150;2023-04-15T14:00:13;20.50;1.00
14277;DHT22;7222;57.346;12.150;2023-04-15T14:02:41;20.60;1.00
14277;DHT22;7222;57.346;12.150;2023-04-15T14:05:09;20.50;1.00
14277;DHT22;7222;57.346;12.150;2023-04-15T14:07:36;20.50;1.00
14277;DHT22;7222;57.346;12.150;2023-04-15T14:10:05;20.50;1.00
14277;DHT22;7222;57.346;12.150;2023-04-15T14:12:32;20.60;1.00
14277;DHT22;7222;57.346;12.150;2023-04-15T14:14:59;20.40;1.00
14277;DHT22;7222;57.346;12.150;2023-04-15T14:17:26;20.30;1.00
14277;DHT22;7222;57.346;12.150;2023-04-15T14:19:55;20.30;1.00
14277;DHT22;7222;57.346;12.150;2023-04-15T14:22:22;20.40;1.00
14277;DHT22;7222;57.346;12.150;2023-04-15T14:24:49;20.30;1.00
14277;DHT22;7222;57.346;12.150;2023-04-15T14:27:18;20.40;1.00
14277;DHT22;7222;57.346;12.150;2023-04-15T14:29:45;20.50;1.00
14277;DHT22;7222;57.346;12.150;2023-04-15T14:32:13;20.60;1.00
14277;DHT22;7222;57.346;12.150;2023-04-15T14:34:40;20.60;1.00
14277;DHT22;7222;57.346;12.150;2023-04-15T14:37:08;20.50;1.00
14277;DHT22;7222;57.346;12.150;2023-04-15T14:39:35;20.40;1.00
14277;DHT22;7222;57.346;12.150;2023-04-15T14:42:02;20.40;1.00
14277;DHT22;7222;57.346;12.150;2023-04-15T14:44:29;20.40;1.00
14277;DHT22;7222;57.346;12.150;2023-04-15T14:46:56;20.20;1.00
14277;DHT22;7222;57.346;12.150;2023-04-15T14:49:23;20.30;1.00
14277;DHT22;7222;57.346;12.150;2023-04-15T14:51:51;20.30;1.00
14277;DHT22;7222;57.346;12.150;2023-04-15T14:54:19;20.20;1.00
14277;DHT22;7222;57.346;12.150;2023-04-15T14:56:46;20.20;1.00
14277;DHT22;7222;57.346;12.150;2023-04-15T14:59:13;20.00;1.00
14277;DHT22;7222;57.346;12.150;2023-04-15T15:01:40;20.00;1.00
14277;DHT22;7222;57.346;12.150;2023-04-15T15:04:09;19.90;1.00
14277;DHT22;7222;57.346;12.150;2023-04-15T15:06:36;20.00;1.00
14277;DHT22;7222;57.346;12.150;2023-04-15T15:09:03;20.10;1.00
14277;DHT22;7222;57.346;12.150;2023-04-15T15:11:32;19.90;1.00
14277;DHT22;7222;57.346;12.150;2023-04-15T15:13:59;19.80;1.00
14277;DHT22;7222;57.346;12.150;2023-04-15T15:16:27;19.70;1.00
14277;DHT22;7222;57.346;12.150;2023-04-15T15:18:54;19.80;1.00
14277;DHT22;7222;57.346;12.150;2023-04-15T15:21:21;19.90;1.00
14277;DHT22;7222;57.346;12.150;2023-04-15T15:23:48;19.80;1.00
14277;DHT22;7222;57.346;12.150;2023-04-15T15:26:15;19.70;1.00
14277;DHT22;7222;57.346;12.150;2023-04-15T15:28:48;19.70;1.00
14277;DHT22;7222;57.346;12.150;2023-04-15T15:31:16;20.00;1.00
14277;DHT22;7222;57.346;12.150;2023-04-15T15:33:43;20.20;1.00
14277;DHT22;7222;57.346;12.150;2023-04-15T15:36:11;20.30;1.00
14277;DHT22;7222;57.346;12.150;2023-04-15T15:38:39;20.30;1.00
14277;DHT22;7222;57.346;12.150;2023-04-15T15:41:06;20.40;1.00
14277;DHT22;7222;57.346;12.150;2023-04-15T15:43:33;20.30;1.00
14277;DHT22;7222;57.346;12.150;2023-04-15T15:46:02;20.40;1.00
14277;DHT22;7222;57.346;12.150;2023-04-15T15:48:30;20.40;1.00
14277;DHT22;7222;57.346;12.150;2023-04-15T15:50:57;20.40;1.00
14277;DHT22;7222;57.346;12.150;2023-04-15T15:53:24;20.30;1.00
14277;DHT22;7222;57.346;12.150;2023-04-15T15:55:51;20.40;1.00